createdAt,value
2023-03-24T00:00:46.939Z,1.92
2023-03-24T00:03:17.758Z,2.13
2023-03-24T00:05:45.083Z,1.73
2023-03-24T00:08:16.648Z,2.10
2023-03-24T00:10:47.766Z,1.60
2023-03-24T00:13:16.461Z,2.25
2023-03-24T00:15:43.299Z,1.73
2023-03-24T00:18:11.460Z,2.15
2023-03-24T00:20:38.416Z,2.25
2023-03-24T00:23:05.203Z,1.67
2023-03-24T00:25:40.310Z,1.95
2023-03-24T00:28:07.907Z,1.85
2023-03-24T00:30:35.893Z,2.00
2023-03-24T00:33:07.318Z,2.00
2023-03-24T00:35:37.909Z,1.52
2023-03-24T00:38:05.032Z,1.67
2023-03-24T00:40:31.954Z,1.70
2023-03-24T00:42:59.394Z,1.85
2023-03-24T00:45:27.214Z,1.40
2023-03-24T00:47:56.725Z,1.67
2023-03-24T00:50:29.264Z,1.40
2023-03-24T00:52:57.019Z,1.33
2023-03-24T00:55:23.900Z,1.45
2023-03-24T00:57:51.375Z,2.38
2023-03-24T01:00:26.905Z,1.60
2023-03-24T01:02:56.498Z,1.50
2023-03-24T01:05:31.370Z,1.65
2023-03-24T01:07:59.876Z,1.50
2023-03-24T01:10:27.587Z,1.45
2023-03-24T01:13:01.206Z,1.52
2023-03-24T01:15:31.728Z,1.27
2023-03-24T01:17:58.613Z,1.63
2023-03-24T01:20:26.740Z,1.08
2023-03-24T01:22:53.764Z,1.25
2023-03-24T01:25:22.641Z,1.50
2023-03-24T01:27:50.744Z,1.33
2023-03-24T01:30:20.412Z,1.60
2023-03-24T01:32:49.982Z,1.35
2023-03-24T01:35:19.607Z,1.33
2023-03-24T01:37:47.213Z,1.20
2023-03-24T01:40:25.942Z,1.13
2023-03-24T01:42:53.002Z,1.30
2023-03-24T01:45:43.656Z,1.40
2023-03-24T01:48:21.462Z,1.35
2023-03-24T01:50:56.103Z,1.30
2023-03-24T01:53:24.105Z,1.48
2023-03-24T01:55:51.852Z,1.30
2023-03-24T01:58:22.109Z,1.42
2023-03-24T02:00:48.997Z,1.20
2023-03-24T02:03:25.612Z,1.27
2023-03-24T02:05:54.021Z,1.60
2023-03-24T02:08:24.124Z,1.20
2023-03-24T02:10:52.745Z,1.40
2023-03-24T02:13:20.073Z,1.20
2023-03-24T02:15:50.049Z,1.23
2023-03-24T02:18:33.764Z,1.50
2023-03-24T02:21:41.390Z,1.15
2023-03-24T02:24:30.168Z,1.40
2023-03-24T02:27:08.348Z,1.60
2023-03-24T02:30:00.684Z,1.38
2023-03-24T02:32:54.998Z,1.33
2023-03-24T02:35:37.462Z,1.25
2023-03-24T02:38:29.831Z,1.50
2023-03-24T02:41:22.399Z,1.73
2023-03-24T02:44:01.614Z,1.27
2023-03-24T02:46:36.473Z,1.25
2023-03-24T02:49:29.438Z,1.40
2023-03-24T02:52:02.934Z,1.58
2023-03-24T02:54:49.388Z,1.50
2023-03-24T02:57:56.278Z,1.10
2023-03-24T03:00:34.243Z,1.42
2023-03-24T03:03:10.646Z,1.27
2023-03-24T03:05:46.040Z,1.73
2023-03-24T03:08:15.014Z,1.50
2023-03-24T03:10:44.422Z,1.40
2023-03-24T03:13:16.525Z,1.73
2023-03-24T03:15:45.712Z,1.50
2023-03-24T03:18:31.582Z,2.25
2023-03-24T03:21:02.940Z,1.50
2023-03-24T03:23:38.440Z,1.90
2023-03-24T03:26:07.993Z,1.60
2023-03-24T03:28:38.941Z,1.77
2023-03-24T03:31:09.235Z,1.45
2023-03-24T03:33:44.509Z,1.60
2023-03-24T03:36:32.244Z,1.70
2023-03-24T03:39:18.884Z,1.83
2023-03-24T03:41:45.737Z,1.58
2023-03-24T03:44:12.831Z,1.75
2023-03-24T03:46:39.869Z,1.60
2023-03-24T03:49:07.474Z,1.83
2023-03-24T03:51:34.794Z,1.80
2023-03-24T03:54:04.454Z,1.80
2023-03-24T03:56:35.782Z,1.77
2023-03-24T03:59:03.234Z,1.85
2023-03-24T04:01:35.239Z,1.70
2023-03-24T04:04:05.019Z,1.90
2023-03-24T04:07:08.669Z,1.95
2023-03-24T04:10:14.847Z,1.70
2023-03-24T04:12:50.413Z,1.80
2023-03-24T04:15:30.335Z,1.73
2023-03-24T04:18:15.975Z,2.25
2023-03-24T04:20:54.544Z,1.67
2023-03-24T04:23:26.618Z,2.05
2023-03-24T04:26:26.872Z,2.25
2023-03-24T04:29:21.984Z,2.28
2023-03-24T04:31:59.393Z,1.70
2023-03-24T04:34:30.274Z,2.58
2023-03-24T04:37:03.075Z,2.50
2023-03-24T04:39:33.198Z,2.22
2023-03-24T04:42:04.810Z,2.60
2023-03-24T04:44:35.928Z,2.30
2023-03-24T04:47:03.468Z,2.90
2023-03-24T04:49:30.151Z,3.05
2023-03-24T04:51:57.016Z,2.55
2023-03-24T04:54:23.996Z,2.50
2023-03-24T04:56:52.719Z,2.83
2023-03-24T04:59:22.791Z,2.00
2023-03-24T05:01:52.442Z,2.95
2023-03-24T05:04:28.671Z,2.83
2023-03-24T05:06:55.394Z,2.35
2023-03-24T05:09:24.369Z,2.70
2023-03-24T05:11:52.203Z,2.83
2023-03-24T05:14:19.257Z,2.88
2023-03-24T05:16:46.253Z,2.55
2023-03-24T05:19:14.957Z,2.55
2023-03-24T05:21:41.778Z,2.70
2023-03-24T05:24:08.901Z,2.92
2023-03-24T05:26:36.778Z,2.90
2023-03-24T05:29:04.029Z,2.35
2023-03-24T05:31:30.814Z,2.63
2023-03-24T05:34:02.597Z,2.72
2023-03-24T05:36:29.395Z,2.80
2023-03-24T05:38:56.300Z,3.00
2023-03-24T05:41:23.159Z,3.00
2023-03-24T05:43:49.964Z,2.60
2023-03-24T05:46:16.819Z,2.75
2023-03-24T05:48:45.181Z,2.50
2023-03-24T05:51:11.908Z,2.83
2023-03-24T05:53:38.800Z,2.60
2023-03-24T05:56:06.356Z,2.47
2023-03-24T05:58:34.934Z,2.80
2023-03-24T06:01:09.162Z,2.70
2023-03-24T06:03:39.343Z,2.92
2023-03-24T06:06:08.771Z,2.50
2023-03-24T06:08:36.409Z,2.47
2023-03-24T06:11:03.796Z,2.58
2023-03-24T06:13:31.461Z,2.60
2023-03-24T06:16:01.494Z,2.47
2023-03-24T06:18:33.786Z,2.85
2023-03-24T06:21:03.050Z,2.90
2023-03-24T06:23:29.965Z,2.83
2023-03-24T06:25:58.538Z,2.35
2023-03-24T06:28:32.173Z,2.90
2023-03-24T06:30:59.201Z,1.95
2023-03-24T06:33:26.162Z,2.38
2023-03-24T06:35:55.118Z,2.50
2023-03-24T06:38:25.149Z,2.67
2023-03-24T06:40:54.439Z,2.58
2023-03-24T06:43:26.771Z,2.40
2023-03-24T06:45:53.581Z,2.20
2023-03-24T06:48:20.908Z,2.60
2023-03-24T06:50:50.023Z,2.22
2023-03-24T06:53:16.929Z,3.08
2023-03-24T06:55:44.022Z,2.42
2023-03-24T06:58:11.358Z,2.83
2023-03-24T07:00:38.880Z,2.30
2023-03-24T07:03:10.888Z,2.72
2023-03-24T07:05:42.130Z,2.70
2023-03-24T07:08:33.908Z,2.55
2023-03-24T07:10:57.987Z,2.00
2023-03-24T07:13:25.020Z,2.90
2023-03-24T07:15:54.996Z,2.72
2023-03-24T07:18:22.363Z,2.47
2023-03-24T07:20:49.427Z,2.53
2023-03-24T07:23:16.508Z,2.40
2023-03-24T07:25:43.757Z,2.28
2023-03-24T07:28:11.407Z,2.88
2023-03-24T07:30:40.937Z,2.58
2023-03-24T07:33:13.744Z,2.40
2023-03-24T07:35:41.236Z,2.28
2023-03-24T07:38:08.484Z,1.95
2023-03-24T07:40:35.838Z,2.25
2023-03-24T07:43:07.750Z,2.08
2023-03-24T07:45:37.488Z,2.50
2023-03-24T07:48:04.834Z,2.63
2023-03-24T07:50:34.935Z,2.35
2023-03-24T07:53:02.024Z,2.53
2023-03-24T07:55:28.928Z,2.45
2023-03-24T07:57:56.291Z,2.08
2023-03-24T08:00:25.389Z,2.40
2023-03-24T08:02:56.030Z,2.60
2023-03-24T08:05:23.634Z,2.35
2023-03-24T08:07:58.478Z,2.42
2023-03-24T08:10:30.094Z,1.92
2023-03-24T08:12:58.079Z,2.17
2023-03-24T08:15:26.746Z,2.72
2023-03-24T08:17:56.607Z,2.17
2023-03-24T08:20:25.156Z,2.80
2023-03-24T08:22:54.915Z,2.83
2023-03-24T08:25:26.574Z,2.17
2023-03-24T08:27:57.767Z,2.40
2023-03-24T08:30:26.860Z,2.47
2023-03-24T08:33:02.649Z,2.33
2023-03-24T08:35:34.798Z,2.20
2023-03-24T08:38:06.121Z,2.50
2023-03-24T08:40:35.798Z,2.15
2023-03-24T08:43:04.819Z,2.45
2023-03-24T08:45:32.720Z,2.92
2023-03-24T08:48:03.026Z,2.30
2023-03-24T08:50:37.146Z,2.30
2023-03-24T08:53:06.416Z,2.40
2023-03-24T08:55:33.771Z,2.58
2023-03-24T08:58:01.012Z,2.65
2023-03-24T09:00:30.966Z,2.53
2023-03-24T09:02:58.844Z,2.35
2023-03-24T09:05:40.859Z,2.15
2023-03-24T09:08:11.436Z,2.53
2023-03-24T09:10:40.083Z,3.35
2023-03-24T09:13:07.430Z,2.30
2023-03-24T09:15:37.706Z,2.10
2023-03-24T09:18:08.000Z,2.40
2023-03-24T09:20:35.148Z,2.33
2023-03-24T09:23:02.109Z,2.80
2023-03-24T09:25:29.071Z,2.33
2023-03-24T09:27:57.407Z,2.38
2023-03-24T09:30:29.267Z,2.50
2023-03-24T09:33:06.735Z,2.40
2023-03-24T09:35:42.673Z,2.30
2023-03-24T09:38:12.556Z,2.10
2023-03-24T09:40:40.403Z,2.17
2023-03-24T09:43:18.924Z,1.92
2023-03-24T09:45:56.638Z,2.17
2023-03-24T09:48:34.782Z,2.42
2023-03-24T09:51:06.518Z,1.90
2023-03-24T09:53:50.517Z,2.10
2023-03-24T09:56:20.021Z,1.90
2023-03-24T09:58:57.678Z,1.92
2023-03-24T10:01:25.017Z,1.77
2023-03-24T10:03:52.056Z,1.88
2023-03-24T10:06:28.317Z,2.00
2023-03-24T10:09:36.920Z,2.30
2023-03-24T10:12:28.284Z,1.90
2023-03-24T10:15:37.249Z,1.90
2023-03-24T10:18:21.892Z,1.50
2023-03-24T10:20:58.798Z,1.70
2023-03-24T10:24:29.188Z,1.50
2023-03-24T10:27:17.653Z,2.10
2023-03-24T10:29:47.194Z,1.80
2023-03-24T10:32:22.659Z,1.50
2023-03-24T10:34:58.393Z,1.92
2023-03-24T10:37:25.513Z,2.08
2023-03-24T10:39:52.606Z,1.80
2023-03-24T10:42:30.296Z,1.70
2023-03-24T10:44:58.650Z,2.20
2023-03-24T10:47:32.189Z,2.40
2023-03-24T10:50:12.298Z,1.63
2023-03-24T10:52:49.123Z,2.42
2023-03-24T10:58:02.897Z,2.35
2023-03-24T11:00:34.993Z,1.58
2023-03-24T11:03:15.170Z,2.05
2023-03-24T11:05:44.142Z,1.52
2023-03-24T11:08:35.224Z,1.70
2023-03-24T11:11:02.482Z,1.67
2023-03-24T11:13:33.989Z,1.90
2023-03-24T11:16:17.595Z,2.17
2023-03-24T11:19:08.476Z,1.55
2023-03-24T11:21:39.037Z,2.10
2023-03-24T11:24:15.985Z,2.00
2023-03-24T11:27:03.972Z,1.90
2023-03-24T11:29:33.048Z,1.75
2023-03-24T11:32:03.911Z,1.75
2023-03-24T11:34:42.631Z,2.15
2023-03-24T11:37:14.252Z,1.50
2023-03-24T11:39:41.365Z,1.38
2023-03-24T11:42:10.886Z,1.90
2023-03-24T11:44:48.272Z,1.50
2023-03-24T11:47:36.408Z,2.10
2023-03-24T11:50:09.521Z,1.50
2023-03-24T11:53:02.971Z,1.55
2023-03-24T11:55:38.067Z,1.42
2023-03-24T11:58:29.031Z,1.60
2023-03-24T12:01:07.833Z,1.45
2023-03-24T12:04:00.413Z,1.45
2023-03-24T12:06:49.180Z,1.48
2023-03-24T12:09:27.875Z,1.25
2023-03-24T12:12:01.117Z,1.20
2023-03-24T12:15:24.610Z,1.33
2023-03-24T12:18:06.891Z,1.52
2023-03-24T12:20:43.312Z,1.48
2023-03-24T12:23:36.664Z,1.20
2023-03-24T12:26:29.557Z,1.58
2023-03-24T12:29:07.648Z,1.27
2023-03-24T12:32:29.699Z,1.50
2023-03-24T12:35:03.019Z,1.27
2023-03-24T12:37:29.753Z,1.27
2023-03-24T12:39:59.565Z,1.30
2023-03-24T12:42:28.624Z,1.50
2023-03-24T12:45:08.326Z,1.70
2023-03-24T12:48:05.806Z,1.90
2023-03-24T12:51:09.736Z,1.30
2023-03-24T12:54:19.636Z,1.50
2023-03-24T12:56:55.240Z,1.60
2023-03-24T12:59:29.626Z,1.05
2023-03-24T13:02:11.075Z,1.05
2023-03-24T13:04:42.273Z,1.13
2023-03-24T13:07:16.696Z,1.45
2023-03-24T13:09:49.153Z,1.10
2023-03-24T13:12:20.676Z,1.10
2023-03-24T13:14:55.543Z,0.82
2023-03-24T13:17:29.949Z,1.05
2023-03-24T13:19:58.135Z,0.70
2023-03-24T13:22:25.754Z,1.48
2023-03-24T13:24:55.199Z,1.02
2023-03-24T13:27:25.465Z,1.20
2023-03-24T13:30:13.118Z,1.05
2023-03-24T13:32:49.710Z,0.98
2023-03-24T13:35:36.572Z,1.00
2023-03-24T13:38:15.800Z,0.98
2023-03-24T13:40:54.063Z,0.80
2023-03-24T13:43:24.284Z,1.33
2023-03-24T13:46:16.516Z,1.25
2023-03-24T13:48:56.193Z,0.77
2023-03-24T13:51:40.853Z,0.75
2023-03-24T13:54:25.103Z,0.75
2023-03-24T13:57:13.728Z,0.98
2023-03-24T14:00:08.581Z,0.77
2023-03-24T14:02:52.000Z,1.63
2023-03-24T14:05:32.112Z,1.50
2023-03-24T14:08:02.082Z,1.02
2023-03-24T14:10:38.256Z,1.30
2023-03-24T14:13:18.154Z,1.48
2023-03-24T14:15:46.908Z,1.45
2023-03-24T14:18:27.477Z,1.35
2023-03-24T14:20:57.361Z,1.38
2023-03-24T14:23:40.994Z,1.33
2023-03-24T14:26:16.389Z,1.50
2023-03-24T14:28:45.364Z,1.60
2023-03-24T14:31:17.962Z,1.65
2023-03-24T14:34:28.111Z,1.90
2023-03-24T14:37:08.051Z,2.88
2023-03-24T14:39:46.745Z,2.05
2023-03-24T14:42:31.910Z,1.45
2023-03-24T14:45:01.888Z,1.70
2023-03-24T14:47:37.891Z,1.67
2023-03-24T14:50:25.113Z,2.00
2023-03-24T14:52:55.221Z,2.08
2023-03-24T14:55:25.022Z,1.17
2023-03-24T14:57:54.127Z,1.40
2023-03-24T15:00:40.663Z,1.48
2023-03-24T15:03:24.902Z,1.38
2023-03-24T15:05:51.756Z,1.10
2023-03-24T15:08:24.124Z,1.05
2023-03-24T15:11:09.655Z,1.13
2023-03-24T15:13:47.270Z,1.17
2023-03-24T15:16:19.188Z,1.23
2023-03-24T15:19:01.346Z,1.33
2023-03-24T15:21:44.551Z,1.20
2023-03-24T15:24:27.621Z,1.35
2023-03-24T15:27:09.251Z,1.38
2023-03-24T15:29:40.972Z,1.20
2023-03-24T15:32:20.379Z,1.25
2023-03-24T15:34:56.105Z,0.98
2023-03-24T15:37:34.944Z,1.10
2023-03-24T15:40:15.410Z,1.20
2023-03-24T15:42:46.853Z,1.10
2023-03-24T15:45:33.298Z,1.38
2023-03-24T15:48:09.473Z,0.85
2023-03-24T15:50:37.723Z,1.23
2023-03-24T15:53:19.355Z,1.10
2023-03-24T15:55:46.395Z,1.13
2023-03-24T15:58:31.168Z,1.00
2023-03-24T16:01:00.289Z,1.30
2023-03-24T16:03:27.368Z,0.95
2023-03-24T16:05:55.830Z,1.58
2023-03-24T16:08:36.250Z,1.42
2023-03-24T16:11:11.308Z,0.95
2023-03-24T16:13:39.534Z,1.40
2023-03-24T16:16:14.967Z,1.00
2023-03-24T16:18:47.333Z,2.08
2023-03-24T16:21:17.797Z,1.63
2023-03-24T16:23:47.359Z,1.88
2023-03-24T16:26:28.736Z,1.48
2023-03-24T16:29:00.664Z,1.27
2023-03-24T16:31:34.013Z,1.05
2023-03-24T16:34:01.247Z,1.85
2023-03-24T16:36:28.482Z,1.17
2023-03-24T16:38:57.183Z,1.33
2023-03-24T16:41:25.602Z,1.25
2023-03-24T16:43:53.834Z,1.45
2023-03-24T16:46:26.981Z,1.30
2023-03-24T16:48:54.290Z,1.80
2023-03-24T16:51:21.184Z,1.45
2023-03-24T16:53:49.954Z,1.60
2023-03-24T16:56:19.141Z,1.75
2023-03-24T16:58:48.839Z,1.73
2023-03-24T17:01:29.173Z,1.58
2023-03-24T17:04:19.910Z,1.73
2023-03-24T17:06:55.224Z,1.70
2023-03-24T17:09:22.802Z,2.13
2023-03-24T17:11:54.517Z,1.63
2023-03-24T17:14:25.855Z,1.77
2023-03-24T17:16:53.958Z,1.75
2023-03-24T17:19:21.932Z,2.15
2023-03-24T17:22:07.397Z,1.95
2023-03-24T17:24:36.198Z,1.55
2023-03-24T17:27:03.483Z,1.80
2023-03-24T17:29:43.557Z,1.67
2023-03-24T17:32:10.926Z,1.50
2023-03-24T17:34:39.055Z,1.92
2023-03-24T17:37:06.562Z,1.50
2023-03-24T17:39:33.335Z,1.55
2023-03-24T17:42:02.045Z,1.67
2023-03-24T17:44:29.077Z,1.50
2023-03-24T17:46:56.955Z,2.17
2023-03-24T17:49:24.676Z,1.75
2023-03-24T17:51:53.272Z,1.95
2023-03-24T17:54:21.370Z,2.22
2023-03-24T17:56:50.859Z,2.47
2023-03-24T17:59:18.018Z,2.40
2023-03-24T18:01:44.890Z,2.55
2023-03-24T18:04:12.623Z,3.05
2023-03-24T18:06:42.127Z,3.17
2023-03-24T18:09:15.387Z,3.80
2023-03-24T18:11:47.694Z,4.03
2023-03-24T18:14:14.901Z,3.65
2023-03-24T18:16:42.725Z,4.50
2023-03-24T18:19:09.567Z,3.60
2023-03-24T18:21:36.724Z,4.07
2023-03-24T18:24:05.080Z,6.43
2023-03-24T18:26:34.541Z,4.63
2023-03-24T18:29:01.454Z,4.28
2023-03-24T18:31:28.393Z,2.95
2023-03-24T18:33:55.515Z,3.35
2023-03-24T18:36:31.788Z,2.60
2023-03-24T18:39:02.246Z,3.50
2023-03-24T18:41:30.112Z,4.40
2023-03-24T18:43:58.823Z,5.85
2023-03-24T18:46:29.874Z,6.80
2023-03-24T18:48:56.742Z,7.18
2023-03-24T18:51:25.793Z,4.68
2023-03-24T18:53:55.539Z,3.17
2023-03-24T18:56:34.475Z,4.00
2023-03-24T18:59:03.987Z,4.10
2023-03-24T19:01:33.309Z,4.78
2023-03-24T19:04:00.196Z,3.45
2023-03-24T19:06:32.080Z,3.05
2023-03-24T19:08:59.801Z,2.95
2023-03-24T19:11:26.981Z,2.75
2023-03-24T19:13:56.630Z,2.42
2023-03-24T19:16:26.685Z,2.03
2023-03-24T19:18:53.579Z,1.60
2023-03-24T19:21:26.366Z,2.10
2023-03-24T19:24:00.002Z,1.90
2023-03-24T19:26:26.848Z,1.92
2023-03-24T19:28:53.730Z,1.67
2023-03-24T19:31:20.922Z,1.95
2023-03-24T19:33:48.172Z,1.90
2023-03-24T19:36:18.515Z,1.45
2023-03-24T19:38:45.380Z,1.92
2023-03-24T19:41:13.848Z,1.52
2023-03-24T19:43:40.589Z,1.67
2023-03-24T19:46:07.611Z,1.33
2023-03-24T19:48:35.011Z,1.83
2023-03-24T19:51:01.946Z,1.60
2023-03-24T19:53:28.704Z,1.50
2023-03-24T19:55:59.934Z,1.95
2023-03-24T19:58:26.723Z,2.08
2023-03-24T20:00:53.590Z,1.45
2023-03-24T20:03:21.605Z,1.58
2023-03-24T20:05:49.471Z,1.67
2023-03-24T20:08:16.607Z,1.17
2023-03-24T20:10:43.532Z,1.52
2023-03-24T20:13:10.615Z,1.02
2023-03-24T20:15:37.632Z,1.00
2023-03-24T20:18:05.814Z,1.20
2023-03-24T20:20:32.595Z,0.95
2023-03-24T20:22:59.401Z,0.85
2023-03-24T20:25:27.576Z,0.82
2023-03-24T20:27:54.687Z,1.02
2023-03-24T20:30:21.551Z,1.10
2023-03-24T20:32:48.763Z,1.10
2023-03-24T20:35:16.178Z,0.90
2023-03-24T20:37:43.389Z,1.50
2023-03-24T20:40:11.696Z,0.90
2023-03-24T20:42:38.840Z,0.70
2023-03-24T20:45:11.155Z,1.05
2023-03-24T20:47:40.567Z,1.23
2023-03-24T20:50:07.964Z,1.10
2023-03-24T20:52:35.286Z,0.98
2023-03-24T20:55:05.687Z,1.17
2023-03-24T20:57:33.341Z,1.48
2023-03-24T21:00:00.153Z,1.15
2023-03-24T21:02:27.126Z,0.80
2023-03-24T21:04:53.955Z,0.90
2023-03-24T21:07:21.772Z,1.10
2023-03-24T21:09:48.467Z,1.33
2023-03-24T21:12:17.641Z,1.65
2023-03-24T21:14:47.041Z,1.50
2023-03-24T21:17:16.234Z,1.05
2023-03-24T21:19:47.030Z,1.35
2023-03-24T21:22:15.525Z,0.95
2023-03-24T21:24:42.646Z,1.23
2023-03-24T21:27:09.565Z,1.25
2023-03-24T21:29:36.320Z,1.58
2023-03-24T21:32:09.984Z,1.60
2023-03-24T21:34:36.650Z,1.33
2023-03-24T21:37:04.206Z,1.40
2023-03-24T21:39:31.195Z,1.65
2023-03-24T21:41:58.086Z,1.42
2023-03-24T21:44:25.292Z,1.60
2023-03-24T21:46:51.943Z,2.03
2023-03-24T21:49:19.401Z,1.67
2023-03-24T21:51:46.946Z,2.13
2023-03-24T21:54:16.714Z,1.80
2023-03-24T21:56:46.052Z,1.80
2023-03-24T21:59:13.156Z,1.83
2023-03-24T22:01:42.479Z,1.95
2023-03-24T22:04:09.337Z,1.63
2023-03-24T22:06:38.227Z,1.83
2023-03-24T22:09:10.524Z,1.50
2023-03-24T22:11:42.943Z,1.20
2023-03-24T22:14:10.009Z,1.33
2023-03-24T22:16:37.089Z,1.88
2023-03-24T22:19:03.964Z,1.50
2023-03-24T22:21:32.491Z,1.60
2023-03-24T22:23:59.471Z,1.40
2023-03-24T22:26:26.183Z,1.63
2023-03-24T22:28:53.169Z,1.80
2023-03-24T22:31:24.862Z,1.63
2023-03-24T22:33:51.877Z,1.88
2023-03-24T22:36:18.760Z,1.90
2023-03-24T22:41:20.214Z,2.00
2023-03-24T22:43:47.144Z,2.15
2023-03-24T22:46:13.860Z,1.90
2023-03-24T22:48:46.267Z,2.03
2023-03-24T22:51:19.829Z,2.00
2023-03-24T22:53:49.926Z,1.77
2023-03-24T22:56:16.915Z,1.67
2023-03-24T22:58:43.923Z,2.10
2023-03-24T23:01:10.716Z,1.88
2023-03-24T23:03:37.562Z,2.20
2023-03-24T23:06:04.509Z,2.08
2023-03-24T23:08:33.841Z,2.13
2023-03-24T23:11:01.061Z,1.88
2023-03-24T23:13:31.136Z,1.92
2023-03-24T23:16:06.682Z,1.95
2023-03-24T23:18:33.550Z,2.00
2023-03-24T23:21:07.291Z,2.13
2023-03-24T23:23:34.740Z,2.40
2023-03-24T23:26:01.777Z,1.85
2023-03-24T23:28:29.458Z,1.70
2023-03-24T23:30:56.251Z,2.03
2023-03-24T23:33:23.434Z,1.63
2023-03-24T23:35:55.064Z,1.80
2023-03-24T23:38:22.733Z,1.92
2023-03-24T23:40:49.567Z,1.75
2023-03-24T23:45:58.745Z,1.77
2023-03-24T23:48:26.408Z,2.15
2023-03-24T23:51:06.363Z,2.08
2023-03-24T23:53:34.401Z,1.50
2023-03-24T23:56:07.018Z,2.00
2023-03-24T23:58:41.704Z,1.50
